Brighton, United Kingdom
Current Conditions -  °F | °C
As of 11:50 AM on Sunday 23 Nov 2014 (Local Time) from EGKA Reporting Station
Light Rain Light Rain  
Wind Chill:   Ceiling: 3200
Heat Index:   Visibility: 4mi
Dew Point:   Wind: 21mph
Humidity: 100%   Direction: 360°N
Pressure: 29.97"   Gusts: NA
Location:  50.83°N, 0.17°W
Report Text: EGKA 231150Z 36018KT 6000 -RA SCT008 BKN032 08/08 Q1015 RERA
Loading
Personal Weather Stations






























Interactive Weather Map New forecast layout! Learn more

10-Day Weather Forecast

Advertisements
Track Severe Weather on mobile